sensor_id;sensor_type;location;lat;lon;timestamp;P1;durP1;ratioP1;P2;durP2;ratioP2
15806;SDS011;8005;51.368;6.140;2022-07-24T00:00:52;9.85;;;5.43;;
15806;SDS011;8005;51.368;6.140;2022-07-24T00:02:27;7.25;;;5.32;;
15806;SDS011;8005;51.368;6.140;2022-07-24T00:03:59;8.38;;;5.50;;
15806;SDS011;8005;51.368;6.140;2022-07-24T00:05:31;7.78;;;6.00;;
15806;SDS011;8005;51.368;6.140;2022-07-24T00:07:03;7.80;;;5.10;;
15806;SDS011;8005;51.368;6.140;2022-07-24T00:08:34;8.10;;;5.60;;
15806;SDS011;8005;51.368;6.140;2022-07-24T00:10:06;8.50;;;5.10;;
15806;SDS011;8005;51.368;6.140;2022-07-24T00:11:39;7.88;;;5.90;;
15806;SDS011;8005;51.368;6.140;2022-07-24T00:13:11;7.75;;;5.65;;
15806;SDS011;8005;51.368;6.140;2022-07-24T00:14:42;9.13;;;6.20;;
15806;SDS011;8005;51.368;6.140;2022-07-24T00:16:14;11.47;;;5.97;;
15806;SDS011;8005;51.368;6.140;2022-07-24T00:17:46;8.95;;;6.60;;
15806;SDS011;8005;51.368;6.140;2022-07-24T00:19:18;8.48;;;5.53;;
15806;SDS011;8005;51.368;6.140;2022-07-24T00:20:50;7.57;;;5.85;;
15806;SDS011;8005;51.368;6.140;2022-07-24T00:22:22;6.22;;;4.85;;
15806;SDS011;8005;51.368;6.140;2022-07-24T00:25:27;7.60;;;5.70;;
15806;SDS011;8005;51.368;6.140;2022-07-24T00:26:59;10.30;;;6.15;;
15806;SDS011;8005;51.368;6.140;2022-07-24T00:28:32;7.15;;;5.55;;
15806;SDS011;8005;51.368;6.140;2022-07-24T00:30:04;8.05;;;5.43;;
15806;SDS011;8005;51.368;6.140;2022-07-24T00:31:36;9.05;;;5.72;;
15806;SDS011;8005;51.368;6.140;2022-07-24T00:33:08;8.60;;;5.70;;
15806;SDS011;8005;51.368;6.140;2022-07-24T00:34:40;9.52;;;5.80;;
15806;SDS011;8005;51.368;6.140;2022-07-24T00:36:12;8.38;;;5.22;;
15806;SDS011;8005;51.368;6.140;2022-07-24T00:37:44;8.98;;;5.82;;
15806;SDS011;8005;51.368;6.140;2022-07-24T00:39:17;7.38;;;5.47;;
15806;SDS011;8005;51.368;6.140;2022-07-24T00:40:49;7.03;;;5.45;;
15806;SDS011;8005;51.368;6.140;2022-07-24T00:42:21;8.85;;;6.60;;
15806;SDS011;8005;51.368;6.140;2022-07-24T00:44:10;8.65;;;6.15;;
15806;SDS011;8005;51.368;6.140;2022-07-24T00:45:45;8.35;;;6.70;;
15806;SDS011;8005;51.368;6.140;2022-07-24T00:47:17;9.55;;;6.00;;
15806;SDS011;8005;51.368;6.140;2022-07-24T00:48:49;9.10;;;6.30;;
15806;SDS011;8005;51.368;6.140;2022-07-24T00:50:22;10.65;;;6.50;;
15806;SDS011;8005;51.368;6.140;2022-07-24T00:51:55;11.75;;;6.95;;
15806;SDS011;8005;51.368;6.140;2022-07-24T00:53:27;9.25;;;6.50;;
15806;SDS011;8005;51.368;6.140;2022-07-24T00:54:59;10.48;;;6.57;;
15806;SDS011;8005;51.368;6.140;2022-07-24T00:56:31;11.30;;;7.60;;
15806;SDS011;8005;51.368;6.140;2022-07-24T00:58:03;8.18;;;7.03;;
15806;SDS011;8005;51.368;6.140;2022-07-24T00:59:35;10.95;;;6.97;;
15806;SDS011;8005;51.368;6.140;2022-07-24T01:01:07;10.48;;;7.00;;
15806;SDS011;8005;51.368;6.140;2022-07-24T01:02:39;7.93;;;6.18;;
15806;SDS011;8005;51.368;6.140;2022-07-24T01:04:12;11.45;;;6.70;;
15806;SDS011;8005;51.368;6.140;2022-07-24T01:05:45;9.52;;;7.07;;
15806;SDS011;8005;51.368;6.140;2022-07-24T01:07:17;9.48;;;7.00;;
15806;SDS011;8005;51.368;6.140;2022-07-24T01:08:49;8.43;;;6.60;;
15806;SDS011;8005;51.368;6.140;2022-07-24T01:10:22;8.20;;;7.10;;
15806;SDS011;8005;51.368;6.140;2022-07-24T01:11:57;10.52;;;7.32;;
15806;SDS011;8005;51.368;6.140;2022-07-24T01:13:29;10.77;;;7.72;;
15806;SDS011;8005;51.368;6.140;2022-07-24T01:15:02;10.45;;;7.45;;
15806;SDS011;8005;51.368;6.140;2022-07-24T01:16:38;9.07;;;7.32;;
15806;SDS011;8005;51.368;6.140;2022-07-24T01:18:10;9.68;;;7.00;;
15806;SDS011;8005;51.368;6.140;2022-07-24T01:19:42;9.90;;;7.77;;
15806;SDS011;8005;51.368;6.140;2022-07-24T01:21:14;9.73;;;7.77;;
15806;SDS011;8005;51.368;6.140;2022-07-24T01:22:46;9.82;;;7.28;;
15806;SDS011;8005;51.368;6.140;2022-07-24T01:24:19;11.63;;;7.70;;
15806;SDS011;8005;51.368;6.140;2022-07-24T01:27:26;8.50;;;6.43;;
15806;SDS011;8005;51.368;6.140;2022-07-24T01:29:00;11.57;;;7.43;;
15806;SDS011;8005;51.368;6.140;2022-07-24T01:30:33;9.90;;;6.57;;
15806;SDS011;8005;51.368;6.140;2022-07-24T01:32:06;11.00;;;7.03;;
15806;SDS011;8005;51.368;6.140;2022-07-24T01:33:38;10.70;;;6.88;;
15806;SDS011;8005;51.368;6.140;2022-07-24T01:35:11;9.65;;;6.45;;
15806;SDS011;8005;51.368;6.140;2022-07-24T01:36:53;9.33;;;7.00;;
15806;SDS011;8005;51.368;6.140;2022-07-24T01:38:26;9.18;;;7.13;;
15806;SDS011;8005;51.368;6.140;2022-07-24T01:39:57;9.75;;;6.85;;
15806;SDS011;8005;51.368;6.140;2022-07-24T01:41:29;10.75;;;6.57;;
15806;SDS011;8005;51.368;6.140;2022-07-24T01:43:02;14.02;;;6.88;;
15806;SDS011;8005;51.368;6.140;2022-07-24T01:44:34;7.85;;;6.22;;
15806;SDS011;8005;51.368;6.140;2022-07-24T01:46:09;12.47;;;7.10;;
15806;SDS011;8005;51.368;6.140;2022-07-24T01:47:44;13.52;;;6.70;;
15806;SDS011;8005;51.368;6.140;2022-07-24T01:49:16;9.77;;;6.35;;
15806;SDS011;8005;51.368;6.140;2022-07-24T01:50:51;9.27;;;6.43;;
15806;SDS011;8005;51.368;6.140;2022-07-24T01:52:24;10.45;;;7.18;;
15806;SDS011;8005;51.368;6.140;2022-07-24T01:53:56;10.00;;;6.22;;
15806;SDS011;8005;51.368;6.140;2022-07-24T01:55:29;8.68;;;6.32;;
15806;SDS011;8005;51.368;6.140;2022-07-24T01:57:05;8.68;;;5.75;;
15806;SDS011;8005;51.368;6.140;2022-07-24T01:58:36;7.07;;;6.00;;
15806;SDS011;8005;51.368;6.140;2022-07-24T02:00:11;8.73;;;6.07;;
15806;SDS011;8005;51.368;6.140;2022-07-24T02:01:47;9.95;;;6.35;;
15806;SDS011;8005;51.368;6.140;2022-07-24T02:03:19;7.72;;;6.03;;
15806;SDS011;8005;51.368;6.140;2022-07-24T02:04:57;10.15;;;6.20;;
15806;SDS011;8005;51.368;6.140;2022-07-24T02:06:29;7.63;;;5.55;;
15806;SDS011;8005;51.368;6.140;2022-07-24T02:08:01;8.47;;;6.13;;
15806;SDS011;8005;51.368;6.140;2022-07-24T02:09:33;8.63;;;5.80;;
15806;SDS011;8005;51.368;6.140;2022-07-24T02:11:05;10.07;;;6.40;;
15806;SDS011;8005;51.368;6.140;2022-07-24T02:12:37;7.28;;;5.28;;
15806;SDS011;8005;51.368;6.140;2022-07-24T02:14:09;8.35;;;5.55;;
15806;SDS011;8005;51.368;6.140;2022-07-24T02:15:41;11.32;;;6.20;;
15806;SDS011;8005;51.368;6.140;2022-07-24T02:17:13;9.87;;;5.47;;
15806;SDS011;8005;51.368;6.140;2022-07-24T02:18:45;8.57;;;6.22;;
15806;SDS011;8005;51.368;6.140;2022-07-24T02:20:17;7.93;;;5.40;;
15806;SDS011;8005;51.368;6.140;2022-07-24T02:21:49;8.82;;;5.47;;
15806;SDS011;8005;51.368;6.140;2022-07-24T02:23:21;9.32;;;5.90;;
15806;SDS011;8005;51.368;6.140;2022-07-24T02:24:53;11.27;;;5.83;;
15806;SDS011;8005;51.368;6.140;2022-07-24T02:26:25;10.20;;;6.22;;
15806;SDS011;8005;51.368;6.140;2022-07-24T02:27:57;9.03;;;5.97;;
15806;SDS011;8005;51.368;6.140;2022-07-24T02:29:29;9.27;;;6.20;;
15806;SDS011;8005;51.368;6.140;2022-07-24T02:32:33;11.68;;;6.40;;
15806;SDS011;8005;51.368;6.140;2022-07-24T02:34:05;8.00;;;5.47;;
15806;SDS011;8005;51.368;6.140;2022-07-24T02:35:37;8.00;;;6.33;;
15806;SDS011;8005;51.368;6.140;2022-07-24T02:37:09;9.30;;;5.80;;
15806;SDS011;8005;51.368;6.140;2022-07-24T02:38:41;7.57;;;5.63;;
15806;SDS011;8005;51.368;6.140;2022-07-24T02:40:13;6.93;;;5.28;;
15806;SDS011;8005;51.368;6.140;2022-07-24T02:43:18;9.77;;;5.78;;
15806;SDS011;8005;51.368;6.140;2022-07-24T02:44:49;8.32;;;6.22;;
15806;SDS011;8005;51.368;6.140;2022-07-24T02:46:21;13.40;;;6.25;;
15806;SDS011;8005;51.368;6.140;2022-07-24T02:47:56;8.88;;;5.97;;
15806;SDS011;8005;51.368;6.140;2022-07-24T02:51:00;9.07;;;5.50;;
15806;SDS011;8005;51.368;6.140;2022-07-24T02:52:32;9.70;;;5.45;;
15806;SDS011;8005;51.368;6.140;2022-07-24T02:54:04;8.10;;;5.37;;
15806;SDS011;8005;51.368;6.140;2022-07-24T02:55:36;10.20;;;5.73;;
15806;SDS011;8005;51.368;6.140;2022-07-24T02:57:07;10.20;;;6.23;;
15806;SDS011;8005;51.368;6.140;2022-07-24T02:58:39;7.90;;;6.47;;
15806;SDS011;8005;51.368;6.140;2022-07-24T03:00:12;9.95;;;5.70;;
15806;SDS011;8005;51.368;6.140;2022-07-24T03:01:46;8.05;;;5.60;;
15806;SDS011;8005;51.368;6.140;2022-07-24T03:03:18;8.38;;;5.82;;
15806;SDS011;8005;51.368;6.140;2022-07-24T03:04:50;9.15;;;5.65;;
15806;SDS011;8005;51.368;6.140;2022-07-24T03:06:22;8.18;;;6.13;;
15806;SDS011;8005;51.368;6.140;2022-07-24T03:07:54;9.40;;;6.03;;
15806;SDS011;8005;51.368;6.140;2022-07-24T03:09:26;8.38;;;5.88;;
15806;SDS011;8005;51.368;6.140;2022-07-24T03:10:58;7.07;;;5.38;;
15806;SDS011;8005;51.368;6.140;2022-07-24T03:12:29;8.50;;;5.93;;
15806;SDS011;8005;51.368;6.140;2022-07-24T03:14:01;7.38;;;5.25;;
15806;SDS011;8005;51.368;6.140;2022-07-24T03:15:33;6.37;;;5.13;;
15806;SDS011;8005;51.368;6.140;2022-07-24T03:17:05;10.80;;;5.80;;
15806;SDS011;8005;51.368;6.140;2022-07-24T03:18:37;7.75;;;5.47;;
15806;SDS011;8005;51.368;6.140;2022-07-24T03:20:09;7.53;;;6.13;;
15806;SDS011;8005;51.368;6.140;2022-07-24T03:21:44;7.15;;;5.65;;
15806;SDS011;8005;51.368;6.140;2022-07-24T03:23:18;8.95;;;6.20;;
15806;SDS011;8005;51.368;6.140;2022-07-24T03:24:50;7.82;;;6.00;;
15806;SDS011;8005;51.368;6.140;2022-07-24T03:26:22;7.77;;;5.87;;
15806;SDS011;8005;51.368;6.140;2022-07-24T03:27:56;9.15;;;6.97;;
15806;SDS011;8005;51.368;6.140;2022-07-24T03:29:28;7.55;;;5.75;;
15806;SDS011;8005;51.368;6.140;2022-07-24T03:31:00;8.32;;;6.60;;
15806;SDS011;8005;51.368;6.140;2022-07-24T03:32:32;8.02;;;6.60;;
15806;SDS011;8005;51.368;6.140;2022-07-24T03:34:04;10.32;;;6.60;;
15806;SDS011;8005;51.368;6.140;2022-07-24T03:35:36;9.35;;;6.03;;
15806;SDS011;8005;51.368;6.140;2022-07-24T03:37:08;7.95;;;6.60;;
15806;SDS011;8005;51.368;6.140;2022-07-24T03:38:40;9.82;;;6.07;;
15806;SDS011;8005;51.368;6.140;2022-07-24T03:40:12;7.63;;;5.72;;
15806;SDS011;8005;51.368;6.140;2022-07-24T03:41:44;10.63;;;6.65;;
15806;SDS011;8005;51.368;6.140;2022-07-24T03:43:16;8.70;;;6.70;;
15806;SDS011;8005;51.368;6.140;2022-07-24T03:44:48;9.10;;;6.23;;
15806;SDS011;8005;51.368;6.140;2022-07-24T03:46:20;11.07;;;7.20;;
15806;SDS011;8005;51.368;6.140;2022-07-24T03:47:52;8.00;;;6.23;;
15806;SDS011;8005;51.368;6.140;2022-07-24T03:49:24;9.70;;;7.13;;
15806;SDS011;8005;51.368;6.140;2022-07-24T03:50:57;9.27;;;7.13;;
15806;SDS011;8005;51.368;6.140;2022-07-24T03:54:02;8.82;;;6.15;;
15806;SDS011;8005;51.368;6.140;2022-07-24T03:55:34;9.10;;;6.38;;
15806;SDS011;8005;51.368;6.140;2022-07-24T03:57:07;10.85;;;6.93;;
15806;SDS011;8005;51.368;6.140;2022-07-24T03:58:40;11.30;;;7.13;;
15806;SDS011;8005;51.368;6.140;2022-07-24T04:00:12;7.43;;;6.40;;
15806;SDS011;8005;51.368;6.140;2022-07-24T04:01:44;7.97;;;6.82;;
15806;SDS011;8005;51.368;6.140;2022-07-24T04:03:16;7.95;;;6.63;;
15806;SDS011;8005;51.368;6.140;2022-07-24T04:06:23;12.55;;;7.03;;
15806;SDS011;8005;51.368;6.140;2022-07-24T04:07:55;11.40;;;6.57;;
15806;SDS011;8005;51.368;6.140;2022-07-24T04:09:27;10.47;;;6.73;;
15806;SDS011;8005;51.368;6.140;2022-07-24T04:11:02;9.82;;;6.47;;
15806;SDS011;8005;51.368;6.140;2022-07-24T04:12:34;8.82;;;6.85;;
15806;SDS011;8005;51.368;6.140;2022-07-24T04:14:06;9.10;;;6.25;;
15806;SDS011;8005;51.368;6.140;2022-07-24T04:15:38;9.00;;;5.95;;
15806;SDS011;8005;51.368;6.140;2022-07-24T04:17:10;8.02;;;6.38;;
15806;SDS011;8005;51.368;6.140;2022-07-24T04:18:42;8.33;;;6.03;;
15806;SDS011;8005;51.368;6.140;2022-07-24T04:20:14;11.43;;;7.00;;
15806;SDS011;8005;51.368;6.140;2022-07-24T04:21:46;8.55;;;6.20;;
15806;SDS011;8005;51.368;6.140;2022-07-24T04:23:18;9.60;;;6.00;;
15806;SDS011;8005;51.368;6.140;2022-07-24T04:24:50;10.82;;;6.60;;
15806;SDS011;8005;51.368;6.140;2022-07-24T04:26:21;8.87;;;7.00;;
15806;SDS011;8005;51.368;6.140;2022-07-24T04:27:57;9.38;;;7.00;;
15806;SDS011;8005;51.368;6.140;2022-07-24T04:29:29;12.73;;;7.00;;
15806;SDS011;8005;51.368;6.140;2022-07-24T04:31:02;9.27;;;6.55;;
15806;SDS011;8005;51.368;6.140;2022-07-24T04:32:34;11.45;;;6.50;;
15806;SDS011;8005;51.368;6.140;2022-07-24T04:34:06;10.50;;;7.00;;
15806;SDS011;8005;51.368;6.140;2022-07-24T04:35:38;8.90;;;6.82;;
15806;SDS011;8005;51.368;6.140;2022-07-24T04:37:12;9.25;;;6.43;;
15806;SDS011;8005;51.368;6.140;2022-07-24T04:38:44;11.33;;;7.53;;
15806;SDS011;8005;51.368;6.140;2022-07-24T04:40:16;11.03;;;6.33;;
15806;SDS011;8005;51.368;6.140;2022-07-24T04:41:48;9.57;;;6.68;;
15806;SDS011;8005;51.368;6.140;2022-07-24T04:43:20;9.63;;;6.87;;
15806;SDS011;8005;51.368;6.140;2022-07-24T04:44:52;9.10;;;7.13;;
15806;SDS011;8005;51.368;6.140;2022-07-24T04:46:24;10.77;;;7.60;;
15806;SDS011;8005;51.368;6.140;2022-07-24T04:47:56;8.90;;;6.85;;
15806;SDS011;8005;51.368;6.140;2022-07-24T04:49:28;11.30;;;7.33;;
15806;SDS011;8005;51.368;6.140;2022-07-24T04:50:59;9.87;;;6.87;;
15806;SDS011;8005;51.368;6.140;2022-07-24T04:52:31;9.70;;;7.33;;
15806;SDS011;8005;51.368;6.140;2022-07-24T04:54:03;12.20;;;8.30;;
15806;SDS011;8005;51.368;6.140;2022-07-24T04:55:35;9.52;;;7.55;;
15806;SDS011;8005;51.368;6.140;2022-07-24T04:57:07;11.57;;;8.17;;
15806;SDS011;8005;51.368;6.140;2022-07-24T04:58:39;11.17;;;8.07;;
15806;SDS011;8005;51.368;6.140;2022-07-24T05:00:12;9.10;;;7.20;;
15806;SDS011;8005;51.368;6.140;2022-07-24T05:01:44;11.82;;;8.25;;
15806;SDS011;8005;51.368;6.140;2022-07-24T05:03:19;11.15;;;8.02;;
15806;SDS011;8005;51.368;6.140;2022-07-24T05:04:51;13.65;;;8.60;;
15806;SDS011;8005;51.368;6.140;2022-07-24T05:06:25;13.88;;;8.23;;
15806;SDS011;8005;51.368;6.140;2022-07-24T05:07:57;12.63;;;8.20;;
15806;SDS011;8005;51.368;6.140;2022-07-24T05:09:29;11.33;;;8.40;;
15806;SDS011;8005;51.368;6.140;2022-07-24T05:11:01;12.40;;;8.43;;
15806;SDS011;8005;51.368;6.140;2022-07-24T05:12:33;14.80;;;9.70;;
15806;SDS011;8005;51.368;6.140;2022-07-24T05:14:05;10.73;;;8.95;;
15806;SDS011;8005;51.368;6.140;2022-07-24T05:15:37;11.45;;;9.00;;
15806;SDS011;8005;51.368;6.140;2022-07-24T05:17:09;12.48;;;9.10;;
15806;SDS011;8005;51.368;6.140;2022-07-24T05:18:41;13.88;;;9.20;;
15806;SDS011;8005;51.368;6.140;2022-07-24T05:20:12;12.18;;;8.38;;
15806;SDS011;8005;51.368;6.140;2022-07-24T05:21:45;15.63;;;9.30;;
15806;SDS011;8005;51.368;6.140;2022-07-24T05:23:17;14.98;;;10.35;;
15806;SDS011;8005;51.368;6.140;2022-07-24T05:24:49;15.90;;;9.93;;
15806;SDS011;8005;51.368;6.140;2022-07-24T05:26:20;14.02;;;9.77;;
15806;SDS011;8005;51.368;6.140;2022-07-24T05:27:53;12.65;;;10.35;;
15806;SDS011;8005;51.368;6.140;2022-07-24T05:29:26;13.48;;;10.52;;
15806;SDS011;8005;51.368;6.140;2022-07-24T05:30:57;11.45;;;10.23;;
15806;SDS011;8005;51.368;6.140;2022-07-24T05:32:30;15.95;;;11.68;;
15806;SDS011;8005;51.368;6.140;2022-07-24T05:34:02;15.05;;;10.23;;
15806;SDS011;8005;51.368;6.140;2022-07-24T05:35:33;15.32;;;10.90;;
15806;SDS011;8005;51.368;6.140;2022-07-24T05:37:05;17.88;;;11.98;;
15806;SDS011;8005;51.368;6.140;2022-07-24T05:38:38;14.73;;;11.65;;
15806;SDS011;8005;51.368;6.140;2022-07-24T05:41:43;17.10;;;11.40;;
15806;SDS011;8005;51.368;6.140;2022-07-24T05:43:15;19.20;;;12.50;;
15806;SDS011;8005;51.368;6.140;2022-07-24T05:44:48;16.85;;;12.65;;
15806;SDS011;8005;51.368;6.140;2022-07-24T05:46:19;16.15;;;12.23;;
15806;SDS011;8005;51.368;6.140;2022-07-24T05:47:51;19.35;;;14.05;;
15806;SDS011;8005;51.368;6.140;2022-07-24T05:49:26;18.05;;;12.18;;
15806;SDS011;8005;51.368;6.140;2022-07-24T05:50:58;16.92;;;12.93;;
15806;SDS011;8005;51.368;6.140;2022-07-24T05:52:30;21.65;;;13.68;;
15806;SDS011;8005;51.368;6.140;2022-07-24T05:54:02;20.67;;;13.10;;
15806;SDS011;8005;51.368;6.140;2022-07-24T05:55:34;18.92;;;13.00;;
15806;SDS011;8005;51.368;6.140;2022-07-24T05:57:06;21.40;;;14.27;;
15806;SDS011;8005;51.368;6.140;2022-07-24T05:58:38;17.00;;;13.73;;
15806;SDS011;8005;51.368;6.140;2022-07-24T06:00:10;22.08;;;15.60;;
15806;SDS011;8005;51.368;6.140;2022-07-24T06:01:48;22.80;;;14.20;;
15806;SDS011;8005;51.368;6.140;2022-07-24T06:03:20;19.63;;;14.80;;
15806;SDS011;8005;51.368;6.140;2022-07-24T06:04:52;20.95;;;14.38;;
15806;SDS011;8005;51.368;6.140;2022-07-24T06:06:24;22.60;;;16.33;;
15806;SDS011;8005;51.368;6.140;2022-07-24T06:07:56;20.65;;;16.45;;
15806;SDS011;8005;51.368;6.140;2022-07-24T06:09:27;24.23;;;17.10;;
15806;SDS011;8005;51.368;6.140;2022-07-24T06:10:59;21.45;;;15.90;;
15806;SDS011;8005;51.368;6.140;2022-07-24T06:14:04;24.27;;;15.60;;
15806;SDS011;8005;51.368;6.140;2022-07-24T06:15:36;22.00;;;16.15;;
15806;SDS011;8005;51.368;6.140;2022-07-24T06:17:15;26.75;;;15.85;;
15806;SDS011;8005;51.368;6.140;2022-07-24T06:18:47;27.08;;;17.00;;
15806;SDS011;8005;51.368;6.140;2022-07-24T06:20:19;21.67;;;15.93;;
15806;SDS011;8005;51.368;6.140;2022-07-24T06:21:51;24.13;;;18.05;;
15806;SDS011;8005;51.368;6.140;2022-07-24T06:23:23;22.45;;;16.73;;
15806;SDS011;8005;51.368;6.140;2022-07-24T06:24:55;24.40;;;17.65;;
15806;SDS011;8005;51.368;6.140;2022-07-24T06:26:27;21.27;;;17.30;;
15806;SDS011;8005;51.368;6.140;2022-07-24T06:28:05;25.00;;;17.77;;
15806;SDS011;8005;51.368;6.140;2022-07-24T06:29:37;23.30;;;18.08;;
15806;SDS011;8005;51.368;6.140;2022-07-24T06:31:09;24.70;;;17.13;;
15806;SDS011;8005;51.368;6.140;2022-07-24T06:32:48;25.30;;;17.05;;
15806;SDS011;8005;51.368;6.140;2022-07-24T06:34:20;27.25;;;18.70;;
15806;SDS011;8005;51.368;6.140;2022-07-24T06:35:55;24.98;;;18.92;;
15806;SDS011;8005;51.368;6.140;2022-07-24T06:37:27;28.48;;;19.70;;
15806;SDS011;8005;51.368;6.140;2022-07-24T06:39:00;26.00;;;17.98;;
15806;SDS011;8005;51.368;6.140;2022-07-24T06:40:32;28.23;;;18.48;;
15806;SDS011;8005;51.368;6.140;2022-07-24T06:42:06;31.00;;;18.88;;
15806;SDS011;8005;51.368;6.140;2022-07-24T06:43:40;27.73;;;20.33;;
15806;SDS011;8005;51.368;6.140;2022-07-24T06:45:13;26.52;;;19.75;;
15806;SDS011;8005;51.368;6.140;2022-07-24T06:46:45;27.85;;;20.15;;
15806;SDS011;8005;51.368;6.140;2022-07-24T06:48:17;27.13;;;18.92;;
15806;SDS011;8005;51.368;6.140;2022-07-24T06:49:49;35.72;;;21.25;;
15806;SDS011;8005;51.368;6.140;2022-07-24T06:51:25;27.85;;;19.30;;
15806;SDS011;8005;51.368;6.140;2022-07-24T06:52:57;26.50;;;19.93;;
15806;SDS011;8005;51.368;6.140;2022-07-24T06:54:29;28.83;;;20.43;;
15806;SDS011;8005;51.368;6.140;2022-07-24T06:56:01;28.48;;;18.70;;
15806;SDS011;8005;51.368;6.140;2022-07-24T06:57:33;27.92;;;20.23;;
15806;SDS011;8005;51.368;6.140;2022-07-24T06:59:05;26.67;;;19.05;;
15806;SDS011;8005;51.368;6.140;2022-07-24T07:00:38;27.75;;;18.67;;
15806;SDS011;8005;51.368;6.140;2022-07-24T07:02:11;28.92;;;18.63;;
15806;SDS011;8005;51.368;6.140;2022-07-24T07:03:43;25.25;;;19.35;;
15806;SDS011;8005;51.368;6.140;2022-07-24T07:05:15;24.85;;;17.65;;
15806;SDS011;8005;51.368;6.140;2022-07-24T07:06:46;26.23;;;17.83;;
15806;SDS011;8005;51.368;6.140;2022-07-24T07:08:18;27.75;;;18.10;;
15806;SDS011;8005;51.368;6.140;2022-07-24T07:09:50;31.38;;;18.25;;
15806;SDS011;8005;51.368;6.140;2022-07-24T07:11:22;25.05;;;17.58;;
15806;SDS011;8005;51.368;6.140;2022-07-24T07:12:54;25.30;;;17.60;;
15806;SDS011;8005;51.368;6.140;2022-07-24T07:14:26;26.77;;;18.90;;
15806;SDS011;8005;51.368;6.140;2022-07-24T07:15:58;23.67;;;17.77;;
15806;SDS011;8005;51.368;6.140;2022-07-24T07:17:30;26.20;;;18.30;;
15806;SDS011;8005;51.368;6.140;2022-07-24T07:19:02;30.83;;;18.98;;
15806;SDS011;8005;51.368;6.140;2022-07-24T07:20:34;31.38;;;19.35;;
15806;SDS011;8005;51.368;6.140;2022-07-24T07:22:06;28.92;;;19.17;;
15806;SDS011;8005;51.368;6.140;2022-07-24T07:23:38;24.25;;;18.45;;
15806;SDS011;8005;51.368;6.140;2022-07-24T07:25:10;27.45;;;17.80;;
15806;SDS011;8005;51.368;6.140;2022-07-24T07:26:42;26.27;;;19.13;;
15806;SDS011;8005;51.368;6.140;2022-07-24T07:28:14;27.25;;;18.88;;
15806;SDS011;8005;51.368;6.140;2022-07-24T07:29:47;28.63;;;19.08;;
15806;SDS011;8005;51.368;6.140;2022-07-24T07:31:19;29.67;;;20.02;;
15806;SDS011;8005;51.368;6.140;2022-07-24T07:32:51;26.75;;;18.95;;
15806;SDS011;8005;51.368;6.140;2022-07-24T07:34:23;25.55;;;18.70;;
15806;SDS011;8005;51.368;6.140;2022-07-24T07:35:55;30.60;;;19.83;;
15806;SDS011;8005;51.368;6.140;2022-07-24T07:37:27;32.88;;;20.55;;
15806;SDS011;8005;51.368;6.140;2022-07-24T07:38:59;31.38;;;20.58;;
15806;SDS011;8005;51.368;6.140;2022-07-24T07:40:31;29.75;;;19.60;;
15806;SDS011;8005;51.368;6.140;2022-07-24T07:42:04;32.40;;;20.42;;
15806;SDS011;8005;51.368;6.140;2022-07-24T07:43:36;25.42;;;19.20;;
15806;SDS011;8005;51.368;6.140;2022-07-24T07:45:08;30.45;;;22.02;;
15806;SDS011;8005;51.368;6.140;2022-07-24T07:46:40;32.38;;;21.45;;
15806;SDS011;8005;51.368;6.140;2022-07-24T07:48:12;33.67;;;21.63;;
15806;SDS011;8005;51.368;6.140;2022-07-24T07:49:44;27.35;;;20.27;;
15806;SDS011;8005;51.368;6.140;2022-07-24T07:51:16;30.77;;;20.10;;
15806;SDS011;8005;51.368;6.140;2022-07-24T07:52:54;26.95;;;18.77;;
15806;SDS011;8005;51.368;6.140;2022-07-24T07:54:26;34.17;;;21.33;;
15806;SDS011;8005;51.368;6.140;2022-07-24T07:55:58;26.88;;;19.83;;
15806;SDS011;8005;51.368;6.140;2022-07-24T07:57:30;26.92;;;19.40;;
15806;SDS011;8005;51.368;6.140;2022-07-24T07:59:22;28.70;;;18.05;;
15806;SDS011;8005;51.368;6.140;2022-07-24T08:00:57;29.40;;;18.40;;
15806;SDS011;8005;51.368;6.140;2022-07-24T08:02:29;26.05;;;18.52;;
15806;SDS011;8005;51.368;6.140;2022-07-24T08:04:01;26.52;;;19.30;;
15806;SDS011;8005;51.368;6.140;2022-07-24T08:05:33;23.73;;;18.65;;
15806;SDS011;8005;51.368;6.140;2022-07-24T08:07:05;24.13;;;17.55;;
15806;SDS011;8005;51.368;6.140;2022-07-24T08:08:38;24.38;;;17.20;;
15806;SDS011;8005;51.368;6.140;2022-07-24T08:10:10;29.17;;;19.23;;
15806;SDS011;8005;51.368;6.140;2022-07-24T08:11:43;25.85;;;18.08;;
15806;SDS011;8005;51.368;6.140;2022-07-24T08:13:15;24.83;;;19.52;;
15806;SDS011;8005;51.368;6.140;2022-07-24T08:14:49;25.65;;;16.80;;
15806;SDS011;8005;51.368;6.140;2022-07-24T08:16:21;26.73;;;18.38;;
15806;SDS011;8005;51.368;6.140;2022-07-24T08:18:01;26.45;;;19.10;;
15806;SDS011;8005;51.368;6.140;2022-07-24T08:19:33;22.58;;;18.30;;
15806;SDS011;8005;51.368;6.140;2022-07-24T08:21:05;22.90;;;18.27;;
15806;SDS011;8005;51.368;6.140;2022-07-24T08:22:37;23.48;;;17.42;;
15806;SDS011;8005;51.368;6.140;2022-07-24T08:24:09;28.60;;;19.02;;
15806;SDS011;8005;51.368;6.140;2022-07-24T08:25:41;27.48;;;17.55;;
15806;SDS011;8005;51.368;6.140;2022-07-24T08:27:13;21.67;;;17.20;;
15806;SDS011;8005;51.368;6.140;2022-07-24T08:28:45;25.23;;;17.60;;
15806;SDS011;8005;51.368;6.140;2022-07-24T08:30:17;25.65;;;18.00;;
15806;SDS011;8005;51.368;6.140;2022-07-24T08:31:49;25.52;;;16.35;;
15806;SDS011;8005;51.368;6.140;2022-07-24T08:33:21;24.45;;;17.38;;
15806;SDS011;8005;51.368;6.140;2022-07-24T08:34:54;25.25;;;19.08;;
15806;SDS011;8005;51.368;6.140;2022-07-24T08:36:27;20.33;;;15.15;;
15806;SDS011;8005;51.368;6.140;2022-07-24T08:37:59;17.33;;;14.20;;
15806;SDS011;8005;51.368;6.140;2022-07-24T08:39:32;23.02;;;15.35;;
15806;SDS011;8005;51.368;6.140;2022-07-24T08:41:04;21.23;;;13.45;;
15806;SDS011;8005;51.368;6.140;2022-07-24T08:42:36;20.80;;;14.38;;
15806;SDS011;8005;51.368;6.140;2022-07-24T08:44:09;15.65;;;11.88;;
15806;SDS011;8005;51.368;6.140;2022-07-24T08:45:41;16.55;;;12.35;;
15806;SDS011;8005;51.368;6.140;2022-07-24T08:47:15;15.80;;;11.48;;
15806;SDS011;8005;51.368;6.140;2022-07-24T08:48:47;15.45;;;10.98;;
15806;SDS011;8005;51.368;6.140;2022-07-24T08:50:19;12.98;;;10.02;;
15806;SDS011;8005;51.368;6.140;2022-07-24T08:51:51;12.82;;;8.85;;
15806;SDS011;8005;51.368;6.140;2022-07-24T08:53:26;15.77;;;9.57;;
15806;SDS011;8005;51.368;6.140;2022-07-24T08:54:58;13.93;;;9.80;;
15806;SDS011;8005;51.368;6.140;2022-07-24T08:56:29;13.98;;;10.18;;
15806;SDS011;8005;51.368;6.140;2022-07-24T08:58:02;18.33;;;10.20;;
15806;SDS011;8005;51.368;6.140;2022-07-24T08:59:34;12.98;;;9.55;;
15806;SDS011;8005;51.368;6.140;2022-07-24T09:01:06;16.17;;;11.63;;
15806;SDS011;8005;51.368;6.140;2022-07-24T09:02:39;16.63;;;10.82;;
15806;SDS011;8005;51.368;6.140;2022-07-24T09:06:18;11.43;;;8.70;;
15806;SDS011;8005;51.368;6.140;2022-07-24T09:08:04;16.73;;;10.73;;
15806;SDS011;8005;51.368;6.140;2022-07-24T09:09:44;15.43;;;11.05;;
15806;SDS011;8005;51.368;6.140;2022-07-24T09:11:30;14.32;;;9.60;;
15806;SDS011;8005;51.368;6.140;2022-07-24T09:13:11;15.65;;;11.35;;
15806;SDS011;8005;51.368;6.140;2022-07-24T09:14:46;15.88;;;10.50;;
15806;SDS011;8005;51.368;6.140;2022-07-24T09:16:19;12.80;;;10.73;;
15806;SDS011;8005;51.368;6.140;2022-07-24T09:17:55;14.40;;;10.93;;
15806;SDS011;8005;51.368;6.140;2022-07-24T09:19:28;12.73;;;11.32;;
15806;SDS011;8005;51.368;6.140;2022-07-24T09:21:13;16.83;;;11.93;;
15806;SDS011;8005;51.368;6.140;2022-07-24T09:22:46;16.05;;;12.52;;
15806;SDS011;8005;51.368;6.140;2022-07-24T09:24:20;17.65;;;12.98;;
15806;SDS011;8005;51.368;6.140;2022-07-24T09:25:53;17.13;;;13.20;;
15806;SDS011;8005;51.368;6.140;2022-07-24T09:27:25;19.27;;;13.80;;
15806;SDS011;8005;51.368;6.140;2022-07-24T09:28:57;15.43;;;12.98;;
15806;SDS011;8005;51.368;6.140;2022-07-24T09:32:14;14.00;;;10.48;;
15806;SDS011;8005;51.368;6.140;2022-07-24T09:33:54;16.92;;;11.40;;
15806;SDS011;8005;51.368;6.140;2022-07-24T09:35:30;15.32;;;10.63;;
15806;SDS011;8005;51.368;6.140;2022-07-24T09:37:07;15.75;;;10.10;;